createdAt,value
2022-09-13T05:02:56.101Z,3.30
2022-09-13T05:08:16.839Z,3.55
2022-09-13T05:13:37.880Z,3.30
2022-09-13T05:18:59.410Z,3.65
2022-09-13T05:24:20.447Z,3.40
2022-09-13T05:35:02.071Z,3.50
2022-09-13T05:40:22.930Z,3.25
2022-09-13T05:45:43.591Z,3.67
2022-09-13T05:56:30.251Z,4.00
2022-09-13T06:01:51.388Z,4.30
2022-09-13T06:07:12.445Z,4.53
2022-09-13T06:12:33.287Z,4.05
2022-09-13T06:23:15.332Z,5.55
2022-09-13T06:28:37.739Z,4.78
2022-09-13T06:34:00.941Z,4.40
2022-09-13T06:39:21.640Z,4.93
2022-09-13T06:50:02.850Z,5.70
2022-09-13T07:00:44.507Z,6.00
2022-09-13T07:06:22.209Z,6.22
2022-09-13T07:11:45.238Z,6.28
2022-09-13T07:17:06.350Z,6.50
2022-09-13T07:22:27.958Z,6.95
2022-09-13T07:27:48.800Z,8.35
2022-09-13T07:38:30.437Z,6.32
2022-09-13T07:43:52.396Z,6.90
2022-09-13T07:49:15.052Z,6.95
2022-09-13T07:54:38.083Z,6.50
2022-09-13T07:59:59.062Z,6.53
2022-09-13T08:05:19.760Z,6.53
2022-09-13T08:10:40.639Z,6.60
2022-09-13T08:21:25.341Z,5.80
2022-09-13T08:26:46.443Z,6.72
2022-09-13T08:32:07.231Z,6.40
2022-09-13T08:37:28.051Z,5.63
2022-09-13T08:43:08.197Z,5.68
2022-09-13T08:48:39.942Z,7.30
2022-09-13T08:54:01.051Z,6.70
2022-09-13T08:59:46.349Z,6.30
2022-09-13T09:05:29.173Z,6.38
2022-09-13T09:10:53.274Z,6.30
2022-09-13T09:16:14.197Z,6.28
2022-09-13T09:21:35.022Z,5.90
2022-09-13T09:26:58.186Z,6.00
2022-09-13T09:32:41.152Z,5.38
2022-09-13T09:38:37.256Z,5.22
2022-09-13T09:44:21.235Z,5.25
2022-09-13T09:50:10.120Z,5.50
2022-09-13T09:55:32.298Z,5.30
2022-09-13T10:00:56.008Z,5.40
2022-09-13T10:06:21.791Z,4.95
2022-09-13T10:11:59.149Z,5.40
2022-09-13T10:17:28.358Z,5.95
2022-09-13T10:23:13.645Z,4.95
2022-09-13T10:28:44.023Z,5.65
2022-09-13T10:34:13.707Z,5.78
2022-09-13T10:39:36.755Z,5.28
2022-09-13T10:45:22.278Z,6.18
2022-09-13T10:51:21.291Z,6.07
2022-09-13T10:56:43.892Z,6.40
2022-09-13T11:02:29.348Z,6.43
2022-09-13T11:08:02.054Z,6.82
2022-09-13T11:13:46.013Z,6.13
2022-09-13T11:19:27.074Z,7.57
2022-09-13T11:25:03.240Z,8.02
2022-09-13T11:30:29.842Z,7.30
2022-09-13T11:36:21.843Z,7.57
2022-09-13T11:41:53.462Z,7.53
2022-09-13T11:47:17.161Z,6.82
2022-09-13T11:53:00.136Z,7.47
2022-09-13T11:58:37.940Z,6.95
2022-09-13T12:04:13.930Z,7.57
2022-09-13T12:09:50.019Z,9.05
2022-09-13T12:15:30.392Z,8.25
2022-09-13T12:21:10.287Z,7.97
2022-09-13T12:26:39.789Z,7.90
2022-09-13T12:32:04.943Z,7.85
2022-09-13T12:37:29.003Z,8.10
2022-09-13T12:43:02.099Z,7.68
2022-09-13T12:48:41.959Z,7.65
2022-09-13T12:54:36.963Z,8.23
2022-09-13T13:00:20.750Z,7.50
2022-09-13T13:05:43.505Z,7.05
2022-09-13T13:11:06.692Z,6.90
2022-09-13T13:16:37.808Z,7.15
2022-09-13T13:22:35.947Z,6.97
2022-09-13T13:27:58.571Z,7.47
2022-09-13T13:33:23.375Z,7.35
2022-09-13T13:38:49.232Z,6.15
2022-09-13T13:44:31.742Z,5.75
2022-09-13T13:50:12.758Z,5.20
2022-09-13T13:55:33.920Z,5.15
2022-09-13T14:00:55.894Z,4.57
2022-09-13T14:06:28.337Z,5.18
2022-09-13T14:12:00.249Z,3.83
2022-09-13T14:17:29.455Z,4.18
2022-09-13T14:22:50.296Z,3.83
2022-09-13T14:28:20.019Z,3.70
2022-09-13T14:33:41.244Z,3.57
2022-09-13T14:39:02.311Z,3.40
2022-09-13T14:44:28.910Z,3.50
2022-09-13T14:49:58.721Z,3.55
2022-09-13T14:55:25.767Z,2.70
2022-09-13T15:00:55.896Z,3.22
2022-09-13T15:06:25.690Z,3.50
2022-09-13T15:11:53.307Z,2.47
2022-09-13T15:17:14.617Z,3.72
2022-09-13T15:22:35.725Z,2.55
2022-09-13T15:27:57.671Z,2.50
2022-09-13T15:33:30.570Z,2.80
2022-09-13T15:39:16.944Z,2.58
2022-09-13T15:44:41.959Z,2.63
2022-09-13T15:50:03.448Z,2.85
2022-09-13T15:55:25.962Z,2.58
2022-09-13T16:00:47.138Z,2.80
2022-09-13T16:06:09.579Z,2.72
2022-09-13T16:11:30.503Z,2.40
2022-09-13T16:16:52.112Z,2.78
2022-09-13T16:22:13.060Z,2.30
2022-09-13T16:27:34.313Z,2.58
2022-09-13T16:32:55.396Z,2.70
2022-09-13T16:38:16.230Z,2.60
2022-09-13T16:43:37.157Z,2.35
2022-09-13T16:48:58.092Z,2.97
2022-09-13T16:54:19.294Z,3.00
2022-09-13T16:59:41.403Z,2.78
2022-09-13T17:05:01.945Z,2.83
2022-09-13T17:10:22.899Z,2.53
2022-09-13T17:15:43.762Z,2.63
2022-09-13T17:21:04.662Z,2.17
2022-09-13T17:26:25.547Z,2.58
2022-09-13T17:31:46.878Z,2.35
2022-09-13T17:37:07.624Z,2.55
2022-09-13T17:42:28.390Z,3.08
2022-09-13T17:47:53.020Z,2.83
2022-09-13T17:53:13.787Z,3.08
2022-09-13T17:58:35.501Z,3.63
2022-09-13T18:03:56.360Z,3.20
2022-09-13T18:09:17.296Z,3.38
2022-09-13T18:14:39.030Z,3.50
2022-09-13T18:19:59.614Z,3.10
2022-09-13T18:25:23.505Z,3.50
2022-09-13T18:30:52.128Z,3.58
2022-09-13T18:36:15.944Z,3.92
2022-09-13T18:41:40.683Z,3.42
2022-09-13T18:47:02.947Z,3.63
2022-09-13T18:52:23.974Z,2.95
2022-09-13T18:57:44.603Z,3.60
2022-09-13T19:03:12.322Z,3.20
2022-09-13T19:08:33.614Z,3.60
2022-09-13T19:13:54.552Z,3.35
2022-09-13T19:19:16.025Z,3.88
2022-09-13T19:24:38.376Z,3.30
2022-09-13T19:29:59.312Z,3.38
2022-09-13T19:35:22.065Z,3.35
2022-09-13T19:40:43.197Z,3.38
2022-09-13T19:46:07.160Z,3.33
2022-09-13T19:51:30.730Z,3.17
2022-09-13T19:56:51.887Z,3.30
2022-09-13T20:02:13.867Z,3.65
2022-09-13T20:07:34.829Z,3.53
2022-09-13T20:12:55.997Z,3.30
2022-09-13T20:18:17.245Z,4.43
2022-09-13T20:23:39.781Z,4.03
2022-09-13T20:29:03.853Z,4.05
2022-09-13T20:34:25.076Z,3.33
2022-09-13T20:45:07.456Z,3.77
2022-09-13T20:50:28.961Z,3.22
2022-09-13T20:55:49.974Z,3.38
2022-09-13T21:01:14.249Z,2.83
2022-09-13T21:07:02.645Z,3.00
2022-09-13T21:12:24.447Z,3.03
2022-09-13T21:17:45.205Z,2.97
2022-09-13T21:23:06.277Z,2.95
2022-09-13T21:28:27.121Z,2.65
2022-09-13T21:33:47.906Z,3.00
2022-09-13T21:39:09.171Z,2.65
2022-09-13T21:44:30.967Z,3.28
